Kennebunk, ME (04043)

6:11 PM EDT on March 27, 2017 (GMT -0400)
Kennebunk | | Change Station

Elev 65 ft 43.39 °N, 70.54 °W | Updated 12 minutes ago

Overcast
Overcast
37.6 °F
Feels Like 38 °F
N
0.6
Wind Variable Wind from NNE
Gusts 3.7 mph

Today
High -- | Low -- °F
--% Chance of Precip.
Yesterday
High -- | Low -- °F
Precip. -- in
Pressure 30.07 in
Visibility 1.5 miles
Clouds Overcast 400 ft
Windchill 38 °F
Dew Point 35 °F
Humidity 91%
Rainfall 0.08 in
Snow Depth Not available.
6:32 AM 7:03 PM
Waning Crescent, 0% visible
METAR KSFM 272156Z AUTO 02010KT 1 1/2SM UP BR OVC004 02/01 A3003 RMK AO2 SLP182 P0000 T00170011 FZRANO
Pressure 30.07 in
Visibility 1.5 miles
Clouds Overcast 400 ft
Windchill 38 °F
Dew Point 35 °F
Humidity 91%
Rainfall 0.08 in
Snow Depth Not available.
6:32 AM 7:03 PM
Waning Crescent, 0% visible
METAR KSFM 272156Z AUTO 02010KT 1 1/2SM UP BR OVC004 02/01 A3003 RMK AO2 SLP182 P0000 T00170011 FZRANO

Get Severe Weather Alerts

Thanks for signing up!

Be on the lookout for a verification email in your inbox.

You'll start receiving the daily forecast at 8 AM.

×

10-Day Weather Forecast

Almanac

Astronomy

Mar. 27, 2017 Rise Set
Actual Time
Civil Twilight
Nautical Twilight
Astronomical Twilight
Moon
Length of Visible Light
Length of Day
Tomorrow will be .
, % of the Moon is Illuminated

Today's Extremes

State Highs State Lows

Community

WunderPhotos

Upload Photos

1,962,540 photos uploaded!

WunderBlog® & News

Nearby

Air Quality

  Air Quality AQ Index Pollutant
Not available.

Snow Depth

Station Depth Elevation

Earthquake Activity

City Distance Mag. Time & Date
Minimum magnitude displayed is 2.5.

Earthquake Activity

City Distance Mag. Time & Date
Minimum magnitude displayed is 2.5.

Coastal Water Temperatures

Place Temperature

Stations

Nearby Weather Stations

Station Location Temp. Windchill Dew Point Humidity Wind Precip. Elev Updated Type
                   

Watches & Warnings

There are currently no watches in effect.